sensor_id;sensor_type;location;lat;lon;timestamp;P1;durP1;ratioP1;P2;durP2;ratioP2
8702;SDS011;9002;42.708;23.186;2023-05-23T00:01:32;17.10;;;13.20;;
8702;SDS011;9002;42.708;23.186;2023-05-23T00:04:01;15.43;;;13.73;;
8702;SDS011;9002;42.708;23.186;2023-05-23T00:06:28;15.60;;;13.73;;
8702;SDS011;9002;42.708;23.186;2023-05-23T00:08:55;16.03;;;14.40;;
8702;SDS011;9002;42.708;23.186;2023-05-23T00:11:22;14.80;;;13.30;;
8702;SDS011;9002;42.708;23.186;2023-05-23T00:13:51;15.73;;;14.13;;
8702;SDS011;9002;42.708;23.186;2023-05-23T00:16:18;16.60;;;14.70;;
8702;SDS011;9002;42.708;23.186;2023-05-23T00:18:47;15.13;;;13.60;;
8702;SDS011;9002;42.708;23.186;2023-05-23T00:21:14;14.47;;;13.03;;
8702;SDS011;9002;42.708;23.186;2023-05-23T00:23:41;14.73;;;13.23;;
8702;SDS011;9002;42.708;23.186;2023-05-23T00:26:07;14.73;;;13.23;;
8702;SDS011;9002;42.708;23.186;2023-05-23T00:28:34;14.73;;;13.23;;
8702;SDS011;9002;42.708;23.186;2023-05-23T00:31:00;13.83;;;12.43;;
8702;SDS011;9002;42.708;23.186;2023-05-23T00:33:27;13.80;;;12.40;;
8702;SDS011;9002;42.708;23.186;2023-05-23T00:35:55;14.40;;;12.90;;
8702;SDS011;9002;42.708;23.186;2023-05-23T00:38:22;14.83;;;13.07;;
8702;SDS011;9002;42.708;23.186;2023-05-23T00:40:48;14.67;;;13.17;;
8702;SDS011;9002;42.708;23.186;2023-05-23T00:43:15;14.30;;;12.20;;
8702;SDS011;9002;42.708;23.186;2023-05-23T00:45:42;13.73;;;12.37;;
8702;SDS011;9002;42.708;23.186;2023-05-23T00:48:09;14.07;;;12.60;;
8702;SDS011;9002;42.708;23.186;2023-05-23T00:50:36;14.20;;;12.80;;
8702;SDS011;9002;42.708;23.186;2023-05-23T00:53:04;14.33;;;12.83;;
8702;SDS011;9002;42.708;23.186;2023-05-23T00:55:30;14.60;;;13.20;;
8702;SDS011;9002;42.708;23.186;2023-05-23T00:57:57;14.87;;;13.37;;
8702;SDS011;9002;42.708;23.186;2023-05-23T01:00:25;14.80;;;13.30;;
8702;SDS011;9002;42.708;23.186;2023-05-23T01:02:52;14.40;;;12.90;;
8702;SDS011;9002;42.708;23.186;2023-05-23T01:05:19;14.63;;;13.23;;
8702;SDS011;9002;42.708;23.186;2023-05-23T01:07:49;15.00;;;13.13;;
8702;SDS011;9002;42.708;23.186;2023-05-23T01:10:19;14.13;;;12.70;;
8702;SDS011;9002;42.708;23.186;2023-05-23T01:12:49;16.07;;;14.37;;
8702;SDS011;9002;42.708;23.186;2023-05-23T01:15:20;14.97;;;13.37;;
8702;SDS011;9002;42.708;23.186;2023-05-23T01:17:49;15.93;;;14.33;;
8702;SDS011;9002;42.708;23.186;2023-05-23T01:20:18;16.17;;;14.57;;
8702;SDS011;9002;42.708;23.186;2023-05-23T01:22:59;15.77;;;14.20;;
8702;SDS011;9002;42.708;23.186;2023-05-23T01:25:37;14.07;;;12.63;;
8702;SDS011;9002;42.708;23.186;2023-05-23T01:28:30;12.60;;;11.10;;
8702;SDS011;9002;42.708;23.186;2023-05-23T01:30:59;12.17;;;10.97;;
8702;SDS011;9002;42.708;23.186;2023-05-23T01:33:29;11.40;;;10.13;;
8702;SDS011;9002;42.708;23.186;2023-05-23T01:35:57;10.23;;;9.23;;
8702;SDS011;9002;42.708;23.186;2023-05-23T01:38:26;9.97;;;8.83;;
8702;SDS011;9002;42.708;23.186;2023-05-23T01:40:53;10.03;;;9.03;;
8702;SDS011;9002;42.708;23.186;2023-05-23T01:43:20;10.53;;;8.80;;
8702;SDS011;9002;42.708;23.186;2023-05-23T01:45:49;9.07;;;8.17;;
8702;SDS011;9002;42.708;23.186;2023-05-23T01:48:19;9.67;;;8.27;;
8702;SDS011;9002;42.708;23.186;2023-05-23T01:50:47;10.13;;;9.13;;
8702;SDS011;9002;42.708;23.186;2023-05-23T01:53:15;12.07;;;10.83;;
8702;SDS011;9002;42.708;23.186;2023-05-23T01:55:42;19.73;;;14.33;;
8702;SDS011;9002;42.708;23.186;2023-05-23T01:58:10;14.83;;;13.07;;
8702;SDS011;9002;42.708;23.186;2023-05-23T02:00:37;17.73;;;15.97;;
8702;SDS011;9002;42.708;23.186;2023-05-23T02:03:05;16.80;;;15.10;;
8702;SDS011;9002;42.708;23.186;2023-05-23T02:05:32;18.57;;;16.57;;
8702;SDS011;9002;42.708;23.186;2023-05-23T02:07:59;18.10;;;15.40;;
8702;SDS011;9002;42.708;23.186;2023-05-23T02:10:26;20.23;;;16.93;;
8702;SDS011;9002;42.708;23.186;2023-05-23T02:12:53;18.87;;;16.57;;
8702;SDS011;9002;42.708;23.186;2023-05-23T02:15:20;23.57;;;18.73;;
8702;SDS011;9002;42.708;23.186;2023-05-23T02:17:47;21.20;;;18.87;;
8702;SDS011;9002;42.708;23.186;2023-05-23T02:20:15;22.97;;;20.27;;
8702;SDS011;9002;42.708;23.186;2023-05-23T02:22:43;25.50;;;21.03;;
8702;SDS011;9002;42.708;23.186;2023-05-23T02:25:10;25.17;;;21.03;;
8702;SDS011;9002;42.708;23.186;2023-05-23T02:27:36;26.40;;;21.63;;
8702;SDS011;9002;42.708;23.186;2023-05-23T02:30:04;24.30;;;21.43;;
8702;SDS011;9002;42.708;23.186;2023-05-23T02:32:31;23.67;;;20.33;;
8702;SDS011;9002;42.708;23.186;2023-05-23T02:34:59;26.73;;;21.70;;
8702;SDS011;9002;42.708;23.186;2023-05-23T02:37:27;27.70;;;22.03;;
8702;SDS011;9002;42.708;23.186;2023-05-23T02:39:54;27.20;;;22.43;;
8702;SDS011;9002;42.708;23.186;2023-05-23T02:42:21;29.83;;;22.17;;
8702;SDS011;9002;42.708;23.186;2023-05-23T02:44:48;25.33;;;22.00;;
8702;SDS011;9002;42.708;23.186;2023-05-23T02:47:15;27.33;;;21.73;;
8702;SDS011;9002;42.708;23.186;2023-05-23T02:49:42;25.23;;;20.90;;
8702;SDS011;9002;42.708;23.186;2023-05-23T02:52:08;25.33;;;20.97;;
8702;SDS011;9002;42.708;23.186;2023-05-23T02:54:36;26.50;;;21.80;;
8702;SDS011;9002;42.708;23.186;2023-05-23T02:57:03;29.37;;;23.90;;
8702;SDS011;9002;42.708;23.186;2023-05-23T02:59:30;27.73;;;23.43;;
8702;SDS011;9002;42.708;23.186;2023-05-23T03:01:57;28.70;;;24.57;;
8702;SDS011;9002;42.708;23.186;2023-05-23T03:04:24;29.40;;;24.03;;
8702;SDS011;9002;42.708;23.186;2023-05-23T03:06:51;25.73;;;22.67;;
8702;SDS011;9002;42.708;23.186;2023-05-23T03:09:19;30.93;;;24.17;;
8702;SDS011;9002;42.708;23.186;2023-05-23T03:11:47;28.93;;;23.63;;
8702;SDS011;9002;42.708;23.186;2023-05-23T03:14:15;30.70;;;23.10;;
8702;SDS011;9002;42.708;23.186;2023-05-23T03:16:42;26.73;;;22.40;;
8702;SDS011;9002;42.708;23.186;2023-05-23T03:19:09;29.10;;;23.07;;
8702;SDS011;9002;42.708;23.186;2023-05-23T03:21:36;27.03;;;21.87;;
8702;SDS011;9002;42.708;23.186;2023-05-23T03:24:03;28.37;;;23.63;;
8702;SDS011;9002;42.708;23.186;2023-05-23T03:26:30;26.60;;;21.53;;
8702;SDS011;9002;42.708;23.186;2023-05-23T03:28:58;20.13;;;16.47;;
8702;SDS011;9002;42.708;23.186;2023-05-23T03:31:25;18.20;;;16.00;;
8702;SDS011;9002;42.708;23.186;2023-05-23T03:33:52;16.43;;;13.40;;
8702;SDS011;9002;42.708;23.186;2023-05-23T03:36:18;15.40;;;13.70;;
8702;SDS011;9002;42.708;23.186;2023-05-23T03:38:46;16.03;;;14.27;;
8702;SDS011;9002;42.708;23.186;2023-05-23T03:41:12;18.83;;;14.63;;
8702;SDS011;9002;42.708;23.186;2023-05-23T03:43:39;21.07;;;15.67;;
8702;SDS011;9002;42.708;23.186;2023-05-23T03:46:07;21.60;;;16.20;;
8702;SDS011;9002;42.708;23.186;2023-05-23T03:48:34;20.73;;;17.20;;
8702;SDS011;9002;42.708;23.186;2023-05-23T03:51:01;20.40;;;17.53;;
8702;SDS011;9002;42.708;23.186;2023-05-23T03:53:28;23.23;;;18.67;;
8702;SDS011;9002;42.708;23.186;2023-05-23T03:55:55;19.93;;;17.30;;
8702;SDS011;9002;42.708;23.186;2023-05-23T03:58:21;18.57;;;16.00;;
8702;SDS011;9002;42.708;23.186;2023-05-23T04:00:48;19.87;;;16.33;;
8702;SDS011;9002;42.708;23.186;2023-05-23T04:03:18;22.40;;;19.63;;
8702;SDS011;9002;42.708;23.186;2023-05-23T04:05:45;27.27;;;21.40;;
8702;SDS011;9002;42.708;23.186;2023-05-23T04:08:12;25.47;;;21.17;;
8702;SDS011;9002;42.708;23.186;2023-05-23T04:10:39;26.40;;;20.90;;
8702;SDS011;9002;42.708;23.186;2023-05-23T04:13:06;29.53;;;23.63;;
8702;SDS011;9002;42.708;23.186;2023-05-23T04:15:33;29.80;;;22.70;;
8702;SDS011;9002;42.708;23.186;2023-05-23T04:18:00;30.00;;;23.10;;
8702;SDS011;9002;42.708;23.186;2023-05-23T04:20:29;23.90;;;19.43;;
8702;SDS011;9002;42.708;23.186;2023-05-23T04:22:56;25.67;;;20.63;;
8702;SDS011;9002;42.708;23.186;2023-05-23T04:25:22;30.13;;;21.00;;
8702;SDS011;9002;42.708;23.186;2023-05-23T04:27:50;44.60;;;21.63;;
8702;SDS011;9002;42.708;23.186;2023-05-23T04:30:18;31.50;;;20.13;;
8702;SDS011;9002;42.708;23.186;2023-05-23T04:32:45;25.73;;;18.97;;
8702;SDS011;9002;42.708;23.186;2023-05-23T04:35:12;22.70;;;18.03;;
8702;SDS011;9002;42.708;23.186;2023-05-23T04:37:40;22.43;;;18.20;;
8702;SDS011;9002;42.708;23.186;2023-05-23T04:40:07;26.83;;;19.20;;
8702;SDS011;9002;42.708;23.186;2023-05-23T04:42:34;26.60;;;20.43;;
8702;SDS011;9002;42.708;23.186;2023-05-23T04:45:01;25.43;;;19.47;;
8702;SDS011;9002;42.708;23.186;2023-05-23T04:47:28;26.23;;;19.90;;
8702;SDS011;9002;42.708;23.186;2023-05-23T04:49:58;22.37;;;18.77;;
8702;SDS011;9002;42.708;23.186;2023-05-23T04:52:26;20.83;;;17.90;;
8702;SDS011;9002;42.708;23.186;2023-05-23T04:54:55;21.03;;;17.37;;
8702;SDS011;9002;42.708;23.186;2023-05-23T04:57:22;18.83;;;16.77;;
8702;SDS011;9002;42.708;23.186;2023-05-23T04:59:48;23.50;;;17.43;;
8702;SDS011;9002;42.708;23.186;2023-05-23T05:02:15;23.57;;;18.03;;
8702;SDS011;9002;42.708;23.186;2023-05-23T05:04:42;30.07;;;18.90;;
8702;SDS011;9002;42.708;23.186;2023-05-23T05:07:09;22.17;;;17.53;;
8702;SDS011;9002;42.708;23.186;2023-05-23T05:09:36;26.80;;;19.53;;
8702;SDS011;9002;42.708;23.186;2023-05-23T05:12:05;24.17;;;19.23;;
8702;SDS011;9002;42.708;23.186;2023-05-23T05:14:31;24.03;;;18.43;;
8702;SDS011;9002;42.708;23.186;2023-05-23T05:16:58;20.13;;;16.60;;
8702;SDS011;9002;42.708;23.186;2023-05-23T05:19:26;24.77;;;17.87;;
8702;SDS011;9002;42.708;23.186;2023-05-23T05:21:53;20.57;;;16.87;;
8702;SDS011;9002;42.708;23.186;2023-05-23T05:24:21;23.23;;;17.03;;
8702;SDS011;9002;42.708;23.186;2023-05-23T05:26:48;21.83;;;17.27;;
8702;SDS011;9002;42.708;23.186;2023-05-23T05:29:17;24.97;;;16.93;;
8702;SDS011;9002;42.708;23.186;2023-05-23T05:31:44;21.50;;;16.97;;
8702;SDS011;9002;42.708;23.186;2023-05-23T05:34:11;19.13;;;15.10;;
8702;SDS011;9002;42.708;23.186;2023-05-23T05:36:38;18.93;;;16.23;;
8702;SDS011;9002;42.708;23.186;2023-05-23T05:39:10;25.20;;;20.57;;
8702;SDS011;9002;42.708;23.186;2023-05-23T05:41:38;24.37;;;18.57;;
8702;SDS011;9002;42.708;23.186;2023-05-23T05:44:05;22.97;;;16.40;;
8702;SDS011;9002;42.708;23.186;2023-05-23T05:46:33;21.90;;;17.97;;
8702;SDS011;9002;42.708;23.186;2023-05-23T05:49:00;21.33;;;17.60;;
8702;SDS011;9002;42.708;23.186;2023-05-23T05:51:27;19.30;;;17.17;;
8702;SDS011;9002;42.708;23.186;2023-05-23T05:53:55;21.20;;;18.33;;
8702;SDS011;9002;42.708;23.186;2023-05-23T05:56:22;33.30;;;28.00;;
8702;SDS011;9002;42.708;23.186;2023-05-23T05:58:49;31.37;;;21.87;;
8702;SDS011;9002;42.708;23.186;2023-05-23T06:01:15;23.33;;;20.07;;
8702;SDS011;9002;42.708;23.186;2023-05-23T06:03:44;21.43;;;18.33;;
8702;SDS011;9002;42.708;23.186;2023-05-23T06:06:10;24.20;;;19.00;;
8702;SDS011;9002;42.708;23.186;2023-05-23T06:08:37;29.60;;;18.17;;
8702;SDS011;9002;42.708;23.186;2023-05-23T06:11:04;24.37;;;18.97;;
8702;SDS011;9002;42.708;23.186;2023-05-23T06:13:31;21.77;;;19.07;;
8702;SDS011;9002;42.708;23.186;2023-05-23T06:15:58;22.97;;;18.73;;
8702;SDS011;9002;42.708;23.186;2023-05-23T06:18:25;23.77;;;20.03;;
8702;SDS011;9002;42.708;23.186;2023-05-23T06:20:53;22.50;;;20.10;;
8702;SDS011;9002;42.708;23.186;2023-05-23T06:23:19;21.87;;;19.53;;
8702;SDS011;9002;42.708;23.186;2023-05-23T06:25:46;21.90;;;18.97;;
8702;SDS011;9002;42.708;23.186;2023-05-23T06:28:13;19.73;;;17.67;;
8702;SDS011;9002;42.708;23.186;2023-05-23T06:30:40;23.20;;;17.30;;
8702;SDS011;9002;42.708;23.186;2023-05-23T06:33:07;25.23;;;20.73;;
8702;SDS011;9002;42.708;23.186;2023-05-23T06:35:34;21.17;;;18.87;;
8702;SDS011;9002;42.708;23.186;2023-05-23T06:38:02;23.20;;;19.90;;
8702;SDS011;9002;42.708;23.186;2023-05-23T06:40:29;25.07;;;19.17;;
8702;SDS011;9002;42.708;23.186;2023-05-23T06:42:55;23.67;;;19.80;;
8702;SDS011;9002;42.708;23.186;2023-05-23T06:45:22;27.53;;;22.77;;
8702;SDS011;9002;42.708;23.186;2023-05-23T06:47:49;23.77;;;19.73;;
8702;SDS011;9002;42.708;23.186;2023-05-23T06:50:16;24.73;;;20.43;;
8702;SDS011;9002;42.708;23.186;2023-05-23T06:52:44;25.47;;;21.73;;
8702;SDS011;9002;42.708;23.186;2023-05-23T06:55:13;28.07;;;21.97;;
8702;SDS011;9002;42.708;23.186;2023-05-23T06:57:43;26.10;;;23.03;;
8702;SDS011;9002;42.708;23.186;2023-05-23T07:00:11;27.17;;;23.70;;
8702;SDS011;9002;42.708;23.186;2023-05-23T07:02:39;33.47;;;25.97;;
8702;SDS011;9002;42.708;23.186;2023-05-23T07:05:06;28.37;;;23.03;;
8702;SDS011;9002;42.708;23.186;2023-05-23T07:07:33;26.40;;;22.13;;
8702;SDS011;9002;42.708;23.186;2023-05-23T07:10:00;29.33;;;23.27;;
8702;SDS011;9002;42.708;23.186;2023-05-23T07:12:28;28.93;;;23.07;;
8702;SDS011;9002;42.708;23.186;2023-05-23T07:14:55;28.50;;;23.53;;
8702;SDS011;9002;42.708;23.186;2023-05-23T07:17:22;32.60;;;23.93;;
8702;SDS011;9002;42.708;23.186;2023-05-23T07:19:48;29.93;;;24.00;;
8702;SDS011;9002;42.708;23.186;2023-05-23T07:22:15;28.97;;;23.23;;
8702;SDS011;9002;42.708;23.186;2023-05-23T07:24:42;33.37;;;23.60;;
8702;SDS011;9002;42.708;23.186;2023-05-23T07:27:09;31.93;;;25.37;;
8702;SDS011;9002;42.708;23.186;2023-05-23T07:29:37;26.67;;;23.60;;
8702;SDS011;9002;42.708;23.186;2023-05-23T07:32:05;29.20;;;23.40;;
8702;SDS011;9002;42.708;23.186;2023-05-23T07:34:32;31.67;;;22.90;;
8702;SDS011;9002;42.708;23.186;2023-05-23T07:36:58;27.33;;;20.37;;
8702;SDS011;9002;42.708;23.186;2023-05-23T07:39:25;26.27;;;21.20;;
8702;SDS011;9002;42.708;23.186;2023-05-23T07:41:52;25.93;;;20.80;;
8702;SDS011;9002;42.708;23.186;2023-05-23T07:44:19;24.97;;;20.00;;
8702;SDS011;9002;42.708;23.186;2023-05-23T07:46:47;26.03;;;20.33;;
8702;SDS011;9002;42.708;23.186;2023-05-23T07:49:13;24.10;;;21.03;;
8702;SDS011;9002;42.708;23.186;2023-05-23T07:51:40;28.43;;;22.73;;
8702;SDS011;9002;42.708;23.186;2023-05-23T07:54:07;23.53;;;20.23;;
8702;SDS011;9002;42.708;23.186;2023-05-23T07:56:34;32.97;;;24.07;;
8702;SDS011;9002;42.708;23.186;2023-05-23T07:59:02;36.17;;;28.60;;
8702;SDS011;9002;42.708;23.186;2023-05-23T08:01:29;41.07;;;30.30;;
8702;SDS011;9002;42.708;23.186;2023-05-23T08:03:57;37.20;;;30.03;;
8702;SDS011;9002;42.708;23.186;2023-05-23T08:06:24;44.93;;;32.17;;
8702;SDS011;9002;42.708;23.186;2023-05-23T08:08:51;38.40;;;28.53;;
8702;SDS011;9002;42.708;23.186;2023-05-23T08:11:18;32.70;;;26.87;;
8702;SDS011;9002;42.708;23.186;2023-05-23T08:13:45;32.77;;;24.03;;
8702;SDS011;9002;42.708;23.186;2023-05-23T08:16:11;32.47;;;27.30;;
8702;SDS011;9002;42.708;23.186;2023-05-23T08:18:38;30.83;;;24.87;;
8702;SDS011;9002;42.708;23.186;2023-05-23T08:21:06;36.33;;;26.77;;
8702;SDS011;9002;42.708;23.186;2023-05-23T08:23:33;36.43;;;25.73;;
8702;SDS011;9002;42.708;23.186;2023-05-23T08:26:00;30.53;;;25.03;;
8702;SDS011;9002;42.708;23.186;2023-05-23T08:28:26;30.77;;;25.90;;
8702;SDS011;9002;42.708;23.186;2023-05-23T08:30:53;34.70;;;26.57;;
8702;SDS011;9002;42.708;23.186;2023-05-23T08:33:21;31.27;;;25.37;;
8702;SDS011;9002;42.708;23.186;2023-05-23T08:35:48;32.97;;;25.17;;
8702;SDS011;9002;42.708;23.186;2023-05-23T08:38:16;31.60;;;25.53;;
8702;SDS011;9002;42.708;23.186;2023-05-23T08:40:48;29.80;;;25.67;;
8702;SDS011;9002;42.708;23.186;2023-05-23T08:43:16;30.10;;;25.40;;
8702;SDS011;9002;42.708;23.186;2023-05-23T08:45:43;25.13;;;21.87;;
8702;SDS011;9002;42.708;23.186;2023-05-23T08:48:12;25.93;;;19.90;;
8702;SDS011;9002;42.708;23.186;2023-05-23T08:50:41;24.17;;;19.30;;
8702;SDS011;9002;42.708;23.186;2023-05-23T08:53:11;22.33;;;17.50;;
8702;SDS011;9002;42.708;23.186;2023-05-23T08:55:45;23.57;;;16.23;;
8702;SDS011;9002;42.708;23.186;2023-05-23T08:58:12;18.67;;;15.10;;
8702;SDS011;9002;42.708;23.186;2023-05-23T09:00:41;15.73;;;12.80;;
8702;SDS011;9002;42.708;23.186;2023-05-23T09:03:08;12.43;;;11.20;;
8702;SDS011;9002;42.708;23.186;2023-05-23T09:05:36;13.73;;;10.97;;
8702;SDS011;9002;42.708;23.186;2023-05-23T09:08:03;10.60;;;9.50;;
8702;SDS011;9002;42.708;23.186;2023-05-23T09:10:31;10.97;;;9.63;;
8702;SDS011;9002;42.708;23.186;2023-05-23T09:12:58;14.73;;;11.20;;
8702;SDS011;9002;42.708;23.186;2023-05-23T09:15:25;14.37;;;12.83;;
8702;SDS011;9002;42.708;23.186;2023-05-23T09:17:57;13.10;;;10.63;;
8702;SDS011;9002;42.708;23.186;2023-05-23T09:20:25;12.30;;;11.00;;
8702;SDS011;9002;42.708;23.186;2023-05-23T09:22:53;10.57;;;9.03;;
8702;SDS011;9002;42.708;23.186;2023-05-23T09:25:21;7.67;;;6.87;;
8702;SDS011;9002;42.708;23.186;2023-05-23T09:27:50;9.60;;;6.83;;
8702;SDS011;9002;42.708;23.186;2023-05-23T09:30:17;8.77;;;7.63;;
8702;SDS011;9002;42.708;23.186;2023-05-23T09:32:56;11.17;;;9.60;;
8702;SDS011;9002;42.708;23.186;2023-05-23T09:35:24;7.37;;;6.60;;
8702;SDS011;9002;42.708;23.186;2023-05-23T09:37:55;9.40;;;6.50;;
8702;SDS011;9002;42.708;23.186;2023-05-23T09:40:23;9.77;;;6.57;;
8702;SDS011;9002;42.708;23.186;2023-05-23T09:43:00;8.33;;;6.00;;
8702;SDS011;9002;42.708;23.186;2023-05-23T09:45:28;6.43;;;5.77;;
8702;SDS011;9002;42.708;23.186;2023-05-23T09:47:56;8.47;;;5.97;;
8702;SDS011;9002;42.708;23.186;2023-05-23T09:50:29;6.33;;;5.73;;
8702;SDS011;9002;42.708;23.186;2023-05-23T09:52:57;6.73;;;5.57;;
8702;SDS011;9002;42.708;23.186;2023-05-23T09:55:24;7.70;;;5.77;;
8702;SDS011;9002;42.708;23.186;2023-05-23T09:57:51;8.50;;;5.83;;
8702;SDS011;9002;42.708;23.186;2023-05-23T10:00:22;7.47;;;5.27;;
8702;SDS011;9002;42.708;23.186;2023-05-23T10:03:00;6.83;;;6.10;;
8702;SDS011;9002;42.708;23.186;2023-05-23T10:05:37;7.10;;;6.40;;
8702;SDS011;9002;42.708;23.186;2023-05-23T10:08:10;7.40;;;5.30;;
8702;SDS011;9002;42.708;23.186;2023-05-23T10:13:57;6.70;;;5.20;;
8702;SDS011;9002;42.708;23.186;2023-05-23T10:16:28;8.63;;;6.00;;
8702;SDS011;9002;42.708;23.186;2023-05-23T10:19:05;5.53;;;5.00;;
8702;SDS011;9002;42.708;23.186;2023-05-23T10:21:37;6.80;;;6.10;;
8702;SDS011;9002;42.708;23.186;2023-05-23T10:24:10;6.37;;;5.73;;
8702;SDS011;9002;42.708;23.186;2023-05-23T10:26:37;6.03;;;5.20;;
8702;SDS011;9002;42.708;23.186;2023-05-23T10:29:05;7.37;;;4.90;;
8702;SDS011;9002;42.708;23.186;2023-05-23T10:31:34;7.70;;;5.70;;
8702;SDS011;9002;42.708;23.186;2023-05-23T10:34:02;5.60;;;5.07;;
8702;SDS011;9002;42.708;23.186;2023-05-23T10:36:36;5.30;;;4.80;;
8702;SDS011;9002;42.708;23.186;2023-05-23T10:39:11;7.57;;;5.93;;
8702;SDS011;9002;42.708;23.186;2023-05-23T10:41:42;4.83;;;4.33;;
8702;SDS011;9002;42.708;23.186;2023-05-23T10:44:16;6.07;;;4.63;;
8702;SDS011;9002;42.708;23.186;2023-05-23T10:46:51;5.73;;;4.47;;
8702;SDS011;9002;42.708;23.186;2023-05-23T10:49:18;6.07;;;4.33;;
8702;SDS011;9002;42.708;23.186;2023-05-23T10:51:47;6.20;;;4.60;;
8702;SDS011;9002;42.708;23.186;2023-05-23T10:54:17;4.77;;;4.30;;
8702;SDS011;9002;42.708;23.186;2023-05-23T10:56:45;8.97;;;4.70;;
8702;SDS011;9002;42.708;23.186;2023-05-23T10:59:18;4.60;;;4.20;;
8702;SDS011;9002;42.708;23.186;2023-05-23T11:01:48;6.80;;;5.93;;
8702;SDS011;9002;42.708;23.186;2023-05-23T11:04:23;5.37;;;4.73;;
8702;SDS011;9002;42.708;23.186;2023-05-23T11:06:52;5.10;;;4.20;;
8702;SDS011;9002;42.708;23.186;2023-05-23T11:09:19;5.23;;;3.87;;
8702;SDS011;9002;42.708;23.186;2023-05-23T11:11:53;7.10;;;4.17;;
8702;SDS011;9002;42.708;23.186;2023-05-23T11:14:32;4.50;;;4.07;;
8702;SDS011;9002;42.708;23.186;2023-05-23T11:17:28;5.53;;;4.27;;
8702;SDS011;9002;42.708;23.186;2023-05-23T11:19:57;4.73;;;4.27;;
8702;SDS011;9002;42.708;23.186;2023-05-23T11:22:28;3.80;;;3.50;;
8702;SDS011;9002;42.708;23.186;2023-05-23T11:24:55;4.97;;;4.17;;
8702;SDS011;9002;42.708;23.186;2023-05-23T11:27:26;4.33;;;3.93;;
8702;SDS011;9002;42.708;23.186;2023-05-23T11:29:57;7.77;;;4.30;;
8702;SDS011;9002;42.708;23.186;2023-05-23T11:32:29;4.67;;;3.73;;
8702;SDS011;9002;42.708;23.186;2023-05-23T11:35:00;5.27;;;4.20;;
8702;SDS011;9002;42.708;23.186;2023-05-23T11:37:27;7.33;;;5.53;;
8702;SDS011;9002;42.708;23.186;2023-05-23T11:39:55;6.77;;;4.20;;
8702;SDS011;9002;42.708;23.186;2023-05-23T11:42:22;4.70;;;4.20;;
8702;SDS011;9002;42.708;23.186;2023-05-23T11:44:49;4.80;;;4.07;;
8702;SDS011;9002;42.708;23.186;2023-05-23T11:47:16;5.90;;;4.00;;
8702;SDS011;9002;42.708;23.186;2023-05-23T11:49:45;4.70;;;3.97;;
8702;SDS011;9002;42.708;23.186;2023-05-23T11:52:12;5.03;;;4.20;;
8702;SDS011;9002;42.708;23.186;2023-05-23T11:54:39;5.30;;;4.43;;
8702;SDS011;9002;42.708;23.186;2023-05-23T11:57:07;5.40;;;4.60;;
8702;SDS011;9002;42.708;23.186;2023-05-23T11:59:34;5.83;;;4.60;;
8702;SDS011;9002;42.708;23.186;2023-05-23T12:02:01;5.53;;;4.40;;
8702;SDS011;9002;42.708;23.186;2023-05-23T12:04:28;6.27;;;4.83;;
8702;SDS011;9002;42.708;23.186;2023-05-23T12:06:56;6.30;;;4.50;;
8702;SDS011;9002;42.708;23.186;2023-05-23T12:09:23;6.87;;;4.60;;
8702;SDS011;9002;42.708;23.186;2023-05-23T12:11:50;4.67;;;4.17;;
8702;SDS011;9002;42.708;23.186;2023-05-23T12:14:17;5.33;;;4.70;;
8702;SDS011;9002;42.708;23.186;2023-05-23T12:16:44;4.33;;;3.93;;
8702;SDS011;9002;42.708;23.186;2023-05-23T12:19:12;6.07;;;5.47;;
8702;SDS011;9002;42.708;23.186;2023-05-23T12:21:40;6.13;;;5.30;;
8702;SDS011;9002;42.708;23.186;2023-05-23T12:24:16;7.03;;;5.00;;
8702;SDS011;9002;42.708;23.186;2023-05-23T12:26:47;4.73;;;4.20;;
8702;SDS011;9002;42.708;23.186;2023-05-23T12:29:17;5.53;;;4.20;;
8702;SDS011;9002;42.708;23.186;2023-05-23T12:31:47;5.73;;;4.63;;
8702;SDS011;9002;42.708;23.186;2023-05-23T12:34:18;4.93;;;4.27;;
8702;SDS011;9002;42.708;23.186;2023-05-23T12:36:46;6.47;;;4.40;;
8702;SDS011;9002;42.708;23.186;2023-05-23T12:39:15;5.03;;;4.27;;
8702;SDS011;9002;42.708;23.186;2023-05-23T12:44:29;5.27;;;4.73;;
8702;SDS011;9002;42.708;23.186;2023-05-23T12:46:56;4.53;;;4.13;;
8702;SDS011;9002;42.708;23.186;2023-05-23T12:49:23;5.73;;;4.90;;
8702;SDS011;9002;42.708;23.186;2023-05-23T12:51:50;6.40;;;5.00;;
8702;SDS011;9002;42.708;23.186;2023-05-23T12:54:18;7.00;;;4.80;;
8702;SDS011;9002;42.708;23.186;2023-05-23T12:56:45;4.83;;;4.10;;
8702;SDS011;9002;42.708;23.186;2023-05-23T12:59:12;5.07;;;4.57;;
8702;SDS011;9002;42.708;23.186;2023-05-23T13:01:38;7.77;;;5.57;;
8702;SDS011;9002;42.708;23.186;2023-05-23T13:04:05;5.10;;;4.60;;
8702;SDS011;9002;42.708;23.186;2023-05-23T13:06:32;5.30;;;4.80;;
8702;SDS011;9002;42.708;23.186;2023-05-23T13:08:59;6.30;;;4.37;;
8702;SDS011;9002;42.708;23.186;2023-05-23T13:11:27;5.07;;;3.83;;
8702;SDS011;9002;42.708;23.186;2023-05-23T13:13:55;4.20;;;3.80;;
8702;SDS011;9002;42.708;23.186;2023-05-23T13:19:05;4.63;;;4.23;;
8702;SDS011;9002;42.708;23.186;2023-05-23T13:21:32;4.77;;;3.90;;
8702;SDS011;9002;42.708;23.186;2023-05-23T13:23:59;4.37;;;4.00;;
8702;SDS011;9002;42.708;23.186;2023-05-23T13:26:27;6.30;;;4.10;;
8702;SDS011;9002;42.708;23.186;2023-05-23T13:28:54;5.20;;;3.80;;
8702;SDS011;9002;42.708;23.186;2023-05-23T13:31:21;4.57;;;4.10;;
8702;SDS011;9002;42.708;23.186;2023-05-23T13:33:48;4.23;;;3.60;;
8702;SDS011;9002;42.708;23.186;2023-05-23T13:36:15;5.00;;;4.50;;
8702;SDS011;9002;42.708;23.186;2023-05-23T13:38:42;9.17;;;7.90;;
8702;SDS011;9002;42.708;23.186;2023-05-23T13:41:09;4.67;;;4.27;;
8702;SDS011;9002;42.708;23.186;2023-05-23T13:43:38;4.47;;;4.03;;
8702;SDS011;9002;42.708;23.186;2023-05-23T13:46:05;5.70;;;3.87;;
8702;SDS011;9002;42.708;23.186;2023-05-23T13:48:31;4.60;;;4.20;;
8702;SDS011;9002;42.708;23.186;2023-05-23T13:50:58;5.17;;;4.70;;
8702;SDS011;9002;42.708;23.186;2023-05-23T13:53:26;4.57;;;4.07;;
8702;SDS011;9002;42.708;23.186;2023-05-23T13:55:52;4.57;;;4.17;;
8702;SDS011;9002;42.708;23.186;2023-05-23T13:58:20;5.07;;;4.27;;
8702;SDS011;9002;42.708;23.186;2023-05-23T14:00:48;4.23;;;3.83;;
8702;SDS011;9002;42.708;23.186;2023-05-23T14:03:15;4.63;;;4.23;;
8702;SDS011;9002;42.708;23.186;2023-05-23T14:05:43;6.10;;;5.13;;
8702;SDS011;9002;42.708;23.186;2023-05-23T14:08:10;4.33;;;3.93;;
8702;SDS011;9002;42.708;23.186;2023-05-23T14:10:38;5.00;;;4.23;;
8702;SDS011;9002;42.708;23.186;2023-05-23T14:13:05;4.60;;;4.20;;
8702;SDS011;9002;42.708;23.186;2023-05-23T14:15:32;5.30;;;4.80;;
8702;SDS011;9002;42.708;23.186;2023-05-23T14:18:00;5.17;;;4.43;;
8702;SDS011;9002;42.708;23.186;2023-05-23T14:20:27;4.97;;;4.47;;
8702;SDS011;9002;42.708;23.186;2023-05-23T14:22:54;7.03;;;5.23;;
8702;SDS011;9002;42.708;23.186;2023-05-23T14:25:21;6.33;;;5.70;;
8702;SDS011;9002;42.708;23.186;2023-05-23T14:27:48;6.23;;;4.20;;
8702;SDS011;9002;42.708;23.186;2023-05-23T14:30:15;5.83;;;5.17;;
8702;SDS011;9002;42.708;23.186;2023-05-23T14:32:42;6.63;;;4.43;;
8702;SDS011;9002;42.708;23.186;2023-05-23T14:35:10;5.00;;;4.27;;
8702;SDS011;9002;42.708;23.186;2023-05-23T14:37:37;4.87;;;4.13;;
8702;SDS011;9002;42.708;23.186;2023-05-23T14:40:04;6.33;;;4.73;;
8702;SDS011;9002;42.708;23.186;2023-05-23T14:42:34;6.80;;;4.67;;
8702;SDS011;9002;42.708;23.186;2023-05-23T14:45:01;5.00;;;4.40;;
8702;SDS011;9002;42.708;23.186;2023-05-23T14:47:27;5.73;;;4.30;;
8702;SDS011;9002;42.708;23.186;2023-05-23T14:52:38;5.07;;;4.30;;
8702;SDS011;9002;42.708;23.186;2023-05-23T14:55:06;5.63;;;5.13;;
8702;SDS011;9002;42.708;23.186;2023-05-23T14:57:33;5.00;;;3.80;;
8702;SDS011;9002;42.708;23.186;2023-05-23T15:00:00;6.72;;;4.70;;
8702;SDS011;9002;42.708;23.186;2023-05-23T15:02:29;5.18;;;4.38;;